Durango, CO

6:24 PM MDT on September 29, 2016 (GMT -0600)
Edgemont Ranch | | Change Station

Elev 7441 ft 37.31 °N, 107.80 °W | Updated 4 minutes ago

Overcast
Overcast
51.4 °F
Feels Like 51.4 °F
N
0.0
Wind Variable Wind from SE
Gusts 0.0 mph

Today
High -- | Low -- °F
--% Chance of Precip.
Yesterday
High -- | Low -- °F
Precip. -- in
Pressure 30.34 in
Visibility 10.0 miles
Clouds Few 4800 ft
Mostly Cloudy 7500 ft
Overcast 9500 ft
Dew Point 50 °F
Humidity 95%
Rainfall 0.22 in
Snow Depth Not available.
7:05 AM 6:56 PM
Waning Crescent, 1% visible
METAR KDRO 292353Z AUTO 01006KT 10SM FEW048 BKN075 OVC095 13/10 A3047 RMK AO2 RAE37 SLP273 P0000 60006 T01280100 10161 20128 58011
Pressure 30.34 in
Visibility 10.0 miles
Clouds Few 4800 ft
Mostly Cloudy 7500 ft
Overcast 9500 ft
Dew Point 50 °F
Humidity 95%
Rainfall 0.22 in
Snow Depth Not available.
7:05 AM 6:56 PM
Waning Crescent, 1% visible
METAR KDRO 292353Z AUTO 01006KT 10SM FEW048 BKN075 OVC095 13/10 A3047 RMK AO2 RAE37 SLP273 P0000 60006 T01280100 10161 20128 58011

10-Day Weather Forecast

Almanac

Astronomy

Sep. 29, 2016 Rise Set
Actual Time
Civil Twilight
Nautical Twilight
Astronomical Twilight
Moon
Length of Visible Light
Length of Day
Tomorrow will be .
, % of the Moon is Illuminated

Today's Extremes

State Highs State Lows

Community

WunderPhotos

Upload Photos

1,942,614 photos uploaded!

WunderBlog® & News

Nearby

Air Quality

  Air Quality AQ Index Pollutant
Not available.

Snow Depth

Station Depth Elevation

Earthquake Activity

City Distance Mag. Time & Date
Minimum magnitude displayed is 2.5.

Coastal Water Temperatures

Place Temperature

Stations

Nearby Weather Stations

Station Location Temp. Windchill Dew Point Humidity Wind Precip. Elev Updated Type
                   

Watches & Warnings

There are currently no watches in effect.